Time;durP1;ratioP1;P1;durP2;ratioP2;P2;SDS_P1;SDS_P2;PMS_P1;PMS_P2;Temp;Humidity;BMP_temperature;BMP_pressure;BME280_temperature;BME280_humidity;BME280_pressure;Samples;Min_cycle;Max_cycle;Signal;HPM_P1;HPM_P2
2022/06/19 00:01:06;;;;;;;6.50;1.97;;;14.60;99.90;;;;;;5044397;28;20053;-75
2022/06/19 00:03:35;;;;;;;5.07;1.88;;;14.50;99.90;;;;;;5043646;28;20045;-77
2022/06/19 00:06:03;;;;;;;7.72;2.65;;;14.50;99.90;;;;;;5060182;28;20045;-77
2022/06/19 00:08:30;;;;;;;6.95;1.85;;;14.40;99.90;;;;;;5057240;28;20057;-75
2022/06/19 00:10:58;;;;;;;3.67;1.30;;;14.40;99.90;;;;;;5056248;28;20049;-76
2022/06/19 00:13:27;;;;;;;9.65;2.03;;;14.40;99.90;;;;;;5055942;28;20045;-76
2022/06/19 00:15:55;;;;;;;5.90;1.90;;;14.40;99.90;;;;;;5056147;28;20063;-76
2022/06/19 00:18:22;;;;;;;9.32;2.10;;;14.40;99.90;;;;;;5038448;28;20062;-75
2022/06/19 00:20:49;;;;;;;8.10;2.13;;;14.40;99.90;;;;;;5037924;28;20107;-76
2022/06/19 00:23:16;;;;;;;10.63;2.08;;;14.40;99.90;;;;;;5056520;28;20053;-76
2022/06/19 00:25:43;;;;;;;11.48;2.70;;;14.40;99.90;;;;;;5056038;28;20048;-76
2022/06/19 00:28:10;;;;;;;8.93;2.22;;;14.50;99.90;;;;;;5038050;28;20057;-75
2022/06/19 00:30:39;;;;;;;9.30;2.58;;;14.40;99.90;;;;;;5055773;28;20068;-76
2022/06/19 00:33:06;;;;;;;8.52;1.92;;;14.50;99.90;;;;;;5055601;28;20057;-76
2022/06/19 00:35:33;;;;;;;5.55;2.10;;;14.50;99.90;;;;;;5055560;28;20111;-75
2022/06/19 00:38:00;;;;;;;8.20;2.45;;;14.50;99.90;;;;;;5055953;28;20496;-74
2022/06/19 00:40:30;;;;;;;8.82;2.38;;;14.50;99.90;;;;;;5055355;28;20128;-76
2022/06/19 00:42:56;;;;;;;9.70;2.72;;;14.50;99.90;;;;;;5055943;28;20111;-76
2022/06/19 00:45:29;;;;;;;9.73;2.40;;;14.50;99.90;;;;;;5064843;28;20044;-75
2022/06/19 00:47:58;;;;;;;9.35;2.40;;;14.60;99.90;;;;;;5057202;28;20068;-76
2022/06/19 00:50:28;;;;;;;9.15;2.40;;;14.60;99.90;;;;;;5057937;28;20154;-75
2022/06/19 00:52:55;;;;;;;10.27;2.58;;;14.70;99.90;;;;;;5057774;28;20059;-76
2022/06/19 00:55:26;;;;;;;12.35;2.33;;;14.80;99.90;;;;;;5075217;28;20068;-76
2022/06/19 00:57:59;;;;;;;9.20;2.20;;;14.80;99.90;;;;;;5076116;28;20056;-77
2022/06/19 01:00:29;;;;;;;11.40;3.10;;;14.80;99.90;;;;;;5072422;28;20045;-75
2022/06/19 01:03:00;;;;;;;9.13;2.42;;;14.90;99.90;;;;;;5045167;28;20099;-76
2022/06/19 01:05:28;;;;;;;9.55;3.20;;;14.90;99.90;;;;;;5062437;28;20053;-75
2022/06/19 01:07:57;;;;;;;11.30;2.83;;;14.90;99.90;;;;;;5040478;28;20053;-77
2022/06/19 01:10:24;;;;;;;11.00;2.90;;;14.90;99.90;;;;;;5070663;28;20070;-77
2022/06/19 01:12:52;;;;;;;12.13;2.53;;;14.90;99.90;;;;;;5075117;28;20056;-77
2022/06/19 01:15:23;;;;;;;13.75;2.90;;;15.00;99.90;;;;;;5057293;28;20059;-77
2022/06/19 01:17:54;;;;;;;8.27;2.80;;;14.90;99.90;;;;;;5074537;28;20565;-77
2022/06/19 01:20:24;;;;;;;12.55;3.83;;;15.00;99.90;;;;;;5057361;28;20098;-77
2022/06/19 01:22:58;;;;;;;14.67;3.17;;;15.00;99.90;;;;;;5074327;28;20131;-76
2022/06/19 01:25:30;;;;;;;14.48;2.95;;;15.00;99.90;;;;;;5074711;28;20360;-77
2022/06/19 01:30:46;;;;;;;13.23;3.22;;;15.00;99.90;;;;;;5074351;28;20051;-76
2022/06/19 01:33:18;;;;;;;15.73;3.42;;;15.10;99.90;;;;;;5057347;28;20048;-76
2022/06/19 01:35:49;;;;;;;10.13;2.78;;;15.10;99.90;;;;;;5074663;28;20048;-77
2022/06/19 01:38:19;;;;;;;12.75;2.55;;;15.10;99.90;;;;;;5071658;28;20049;-77
2022/06/19 01:40:51;;;;;;;15.35;3.15;;;14.90;99.90;;;;;;5038929;28;20075;-78
2022/06/19 01:43:19;;;;;;;17.25;2.78;;;15.10;99.90;;;;;;5054489;28;20053;-78
2022/06/19 01:45:52;;;;;;;11.65;3.78;;;15.10;99.90;;;;;;5036514;28;20053;-76
2022/06/19 01:48:20;;;;;;;11.20;2.58;;;15.10;99.90;;;;;;5054466;28;20057;-76
2022/06/19 01:50:48;;;;;;;17.13;4.32;;;15.00;99.90;;;;;;5035986;28;20045;-75
2022/06/19 01:53:18;;;;;;;14.73;4.10;;;15.00;99.90;;;;;;5036644;28;20497;-74
2022/06/19 01:55:47;;;;;;;13.15;3.47;;;14.90;99.90;;;;;;5060311;28;20094;-76
2022/06/19 01:58:15;;;;;;;13.40;3.15;;;14.90;99.90;;;;;;5055518;28;20102;-75
2022/06/19 02:00:43;;;;;;;11.75;2.90;;;14.90;99.90;;;;;;5056161;28;20048;-76
2022/06/19 02:03:15;;;;;;;13.90;2.95;;;14.90;99.90;;;;;;5056207;28;20131;-76
2022/06/19 02:05:42;;;;;;;9.98;2.70;;;14.80;99.90;;;;;;5055678;28;20053;-76
2022/06/19 02:08:11;;;;;;;17.17;3.80;;;14.70;99.90;;;;;;5056239;28;20056;-76
2022/06/19 02:10:40;;;;;;;15.95;3.40;;;14.30;99.90;;;;;;5056312;28;20049;-76
2022/06/19 02:13:12;;;;;;;15.73;3.95;;;14.60;99.90;;;;;;5035879;28;20559;-76
2022/06/19 02:15:39;;;;;;;15.48;3.55;;;14.60;99.90;;;;;;5036504;28;20053;-76
2022/06/19 02:18:10;;;;;;;16.52;3.90;;;14.50;99.90;;;;;;5053803;28;20048;-76
2022/06/19 02:20:36;;;;;;;;;;;14.50;99.90;;;;;;5053814;28;20049;-77
2022/06/19 02:23:05;;;;;;;17.48;4.13;;;14.50;99.90;;;;;;5036207;28;19967;-76
2022/06/19 02:25:33;;;;;;;13.02;3.53;;;14.50;99.90;;;;;;5035898;28;20057;-76
2022/06/19 02:28:02;;;;;;;13.20;3.92;;;14.40;99.90;;;;;;5035681;28;20063;-76
2022/06/19 02:30:30;;;;;;;17.75;3.67;;;14.40;99.90;;;;;;5036049;28;20041;-76
2022/06/19 02:32:58;;;;;;;14.65;2.92;;;14.40;99.90;;;;;;5053683;28;20057;-76
2022/06/19 02:35:26;;;;;;;10.82;2.80;;;14.40;99.90;;;;;;5053494;28;20049;-75
2022/06/19 02:37:55;;;;;;;11.82;3.15;;;14.40;99.90;;;;;;5035522;28;20055;-76
2022/06/19 02:40:32;;;;;;;12.07;3.45;;;14.40;99.90;;;;;;5053952;28;20056;-75
2022/06/19 02:43:00;;;;;;;13.38;3.83;;;14.40;99.90;;;;;;5073673;28;20060;-76
2022/06/19 02:45:30;;;;;;;13.48;3.20;;;14.40;99.90;;;;;;5073642;28;20044;-76
2022/06/19 02:48:00;;;;;;;21.05;3.60;;;14.40;99.90;;;;;;5055415;28;20048;-77
2022/06/19 02:50:31;;;;;;;11.30;2.78;;;14.40;99.90;;;;;;5073734;28;20050;-75
2022/06/19 02:52:58;;;;;;;13.95;2.83;;;14.40;99.90;;;;;;5055060;28;20094;-75
2022/06/19 02:55:25;;;;;;;10.32;2.47;;;14.50;99.90;;;;;;5056703;28;20519;-76
2022/06/19 02:57:52;;;;;;;12.98;2.90;;;14.50;99.90;;;;;;5058159;28;20044;-77
2022/06/19 03:00:22;;;;;;;9.20;2.53;;;14.50;99.90;;;;;;5035367;28;20048;-76
2022/06/19 03:02:52;;;;;;;7.75;2.30;;;14.30;99.90;;;;;;5034948;28;20516;-75
2022/06/19 03:05:22;;;;;;;8.07;2.47;;;14.40;99.90;;;;;;5035799;28;20051;-76
2022/06/19 03:07:49;;;;;;;9.83;2.70;;;14.50;99.90;;;;;;5035644;28;20049;-76
2022/06/19 03:10:17;;;;;;;26.45;3.22;;;14.40;99.90;;;;;;5051373;28;20670;-75
2022/06/19 03:12:45;;;;;;;12.65;3.35;;;14.40;99.90;;;;;;5055286;28;20056;-76
2022/06/19 03:15:12;;;;;;;10.95;3.05;;;14.40;99.90;;;;;;5071801;28;20064;-76
2022/06/19 03:17:40;;;;;;;15.43;3.67;;;14.40;99.90;;;;;;5073096;28;20044;-76
2022/06/19 03:20:13;;;;;;;8.27;2.25;;;14.40;99.90;;;;;;5054583;28;20066;-76
2022/06/19 03:22:40;;;;;;;9.30;2.83;;;14.40;99.90;;;;;;5054690;28;20052;-77
2022/06/19 03:25:08;;;;;;;10.50;2.53;;;14.30;99.90;;;;;;5072686;28;20557;-77
2022/06/19 03:27:35;;;;;;;16.08;3.08;;;14.30;99.90;;;;;;5054884;28;20091;-75
2022/06/19 03:30:02;;;;;;;9.43;2.53;;;14.30;99.90;;;;;;5072399;28;20059;-76
2022/06/19 03:32:29;;;;;;;19.48;3.38;;;14.30;99.90;;;;;;5054821;28;20044;-75
2022/06/19 03:34:56;;;;;;;11.00;2.90;;;14.30;99.90;;;;;;5055742;28;20118;-75
2022/06/19 03:37:25;;;;;;;12.00;2.83;;;14.30;99.90;;;;;;5054711;28;20129;-76
2022/06/19 03:39:52;;;;;;;11.07;2.78;;;14.30;99.90;;;;;;5053675;28;20082;-77
2022/06/19 03:42:19;;;;;;;9.25;2.83;;;14.30;99.90;;;;;;5054926;28;20057;-78
2022/06/19 03:44:46;;;;;;;14.73;3.47;;;14.20;99.90;;;;;;5072630;28;20056;-77
2022/06/19 03:47:19;;;;;;;19.27;4.13;;;14.20;99.90;;;;;;5071675;28;20060;-78
2022/06/19 03:49:46;;;;;;;14.10;3.97;;;14.00;99.90;;;;;;5072594;28;20052;-76
2022/06/19 03:52:13;;;;;;;18.80;3.60;;;13.80;99.90;;;;;;5072187;28;20052;-76
2022/06/19 03:54:41;;;;;;;14.73;3.92;;;13.70;99.90;;;;;;5071591;28;20404;-76
2022/06/19 03:57:10;;;;;;;10.75;3.22;;;13.60;99.90;;;;;;5034807;28;20045;-77
2022/06/19 03:59:37;;;;;;;13.93;3.15;;;13.60;99.90;;;;;;5052472;28;20174;-76
2022/06/19 04:02:04;;;;;;;16.70;3.83;;;13.50;99.90;;;;;;5034710;28;20052;-76
2022/06/19 04:04:31;;;;;;;16.85;4.00;;;13.40;99.90;;;;;;5034311;28;20107;-76
2022/06/19 04:06:58;;;;;;;16.58;3.60;;;13.40;99.90;;;;;;5035193;28;20053;-75
2022/06/19 04:09:25;;;;;;;13.32;3.17;;;13.40;99.90;;;;;;5045095;28;20049;-76
2022/06/19 04:11:53;;;;;;;14.75;3.65;;;13.40;99.90;;;;;;5053880;28;20045;-77
2022/06/19 04:14:20;;;;;;;16.73;3.90;;;13.40;99.90;;;;;;5054846;28;20059;-77
2022/06/19 04:16:47;;;;;;;17.17;4.50;;;13.40;99.90;;;;;;5071408;28;20094;-76
2022/06/19 04:19:14;;;;;;;15.77;3.65;;;13.40;99.90;;;;;;5054443;28;20060;-78
2022/06/19 04:21:43;;;;;;;18.38;4.70;;;13.40;99.90;;;;;;5055513;28;20072;-77
2022/06/19 04:24:12;;;;;;;20.10;3.67;;;13.30;99.90;;;;;;5058185;28;20045;-76
2022/06/19 04:26:40;;;;;;;18.23;3.97;;;13.20;99.90;;;;;;5058354;28;20051;-77
2022/06/19 04:29:10;;;;;;;16.50;3.78;;;13.20;99.90;;;;;;5058821;28;20480;-77
2022/06/19 04:31:37;;;;;;;19.83;5.60;;;13.20;99.90;;;;;;5076327;28;20084;-77
2022/06/19 04:34:04;;;;;;;15.13;3.85;;;13.10;99.90;;;;;;5075531;28;20059;-76
2022/06/19 04:36:32;;;;;;;12.93;3.58;;;13.00;99.90;;;;;;5058511;28;20059;-77
2022/06/19 04:38:59;;;;;;;12.50;2.95;;;13.00;99.90;;;;;;5057222;28;20110;-76
2022/06/19 04:41:28;;;;;;;20.42;3.92;;;13.00;99.90;;;;;;5075143;28;20091;-76
2022/06/19 04:43:57;;;;;;;15.20;3.35;;;13.00;99.90;;;;;;5076111;28;20052;-75
2022/06/19 04:46:26;;;;;;;11.32;2.95;;;13.00;99.90;;;;;;5058911;28;20052;-76
2022/06/19 04:48:53;;;;;;;15.95;3.95;;;13.00;99.90;;;;;;5063073;28;20060;-77
2022/06/19 04:51:21;;;;;;;14.48;3.92;;;13.00;99.90;;;;;;5081010;28;20059;-75
2022/06/19 04:53:48;;;;;;;20.48;4.07;;;13.10;99.90;;;;;;5047983;28;20049;-76
2022/06/19 04:56:16;;;;;;;17.95;4.00;;;13.10;99.90;;;;;;5043900;28;20404;-76
2022/06/19 04:58:43;;;;;;;15.07;4.43;;;13.10;99.90;;;;;;5041041;28;20144;-75
2022/06/19 05:01:13;;;;;;;13.55;3.67;;;13.10;99.90;;;;;;5037358;28;20497;-76
2022/06/19 05:03:41;;;;;;;12.73;3.60;;;13.20;99.90;;;;;;5055504;28;20055;-76
2022/06/19 05:06:08;;;;;;;14.15;3.17;;;13.20;99.90;;;;;;5055050;28;20303;-75
2022/06/19 05:08:35;;;;;;;16.20;3.70;;;13.20;99.90;;;;;;5036732;28;20144;-76
2022/06/19 05:11:02;;;;;;;17.27;4.18;;;13.20;99.90;;;;;;5055277;28;20049;-76
2022/06/19 05:13:30;;;;;;;17.35;3.25;;;13.20;99.90;;;;;;5055293;28;20122;-76
2022/06/19 05:16:05;;;;;;;16.33;3.30;;;13.20;99.90;;;;;;5054754;28;20052;-75
2022/06/19 05:18:33;;;;;;;13.07;4.13;;;13.20;99.90;;;;;;5037481;28;20088;-76
2022/06/19 05:21:04;;;;;;;12.50;2.85;;;13.20;99.90;;;;;;5037341;28;20493;-76
2022/06/19 05:23:31;;;;;;;13.85;3.80;;;13.20;99.90;;;;;;5070381;28;20488;-76
2022/06/19 05:25:59;;;;;;;11.88;3.08;;;13.20;99.90;;;;;;5077828;28;20048;-75
2022/06/19 05:28:30;;;;;;;10.40;2.72;;;13.20;99.90;;;;;;5057265;28;20064;-76
2022/06/19 05:30:58;;;;;;;;;;;13.10;99.90;;;;;;5074713;28;20132;-76
2022/06/19 05:33:25;;;;;;;13.65;3.90;;;13.10;99.90;;;;;;5074411;28;19960;-75
2022/06/19 05:35:52;;;;;;;17.60;4.25;;;13.10;99.90;;;;;;5074463;28;20484;-75
2022/06/19 05:38:20;;;;;;;19.40;3.67;;;13.10;99.90;;;;;;5073072;28;20409;-74
2022/06/19 05:40:49;;;;;;;16.23;3.58;;;13.10;99.90;;;;;;5073286;28;20507;-75
2022/06/19 05:43:16;;;;;;;15.65;4.47;;;13.10;99.90;;;;;;5056445;28;20120;-75
2022/06/19 05:45:50;;;;;;;13.80;3.85;;;13.10;99.90;;;;;;5074672;28;20059;-75
2022/06/19 05:48:18;;;;;;;13.13;4.28;;;13.00;99.90;;;;;;5056511;28;20507;-74
2022/06/19 05:50:44;;;;;;;13.55;3.60;;;13.00;99.90;;;;;;5073744;28;20048;-76
2022/06/19 05:53:12;;;;;;;17.20;5.47;;;12.90;99.90;;;;;;5061979;28;20052;-75
2022/06/19 05:55:40;;;;;;;17.30;4.43;;;12.90;99.90;;;;;;5036164;28;20110;-76
2022/06/19 05:58:07;;;;;;;18.83;4.00;;;12.90;99.90;;;;;;5035913;28;20057;-76
2022/06/19 06:00:34;;;;;;;21.98;4.90;;;12.90;99.90;;;;;;5036177;28;20056;-76
2022/06/19 06:03:01;;;;;;;13.90;3.60;;;12.80;99.90;;;;;;5036129;28;20052;-75
2022/06/19 06:05:28;;;;;;;17.95;3.78;;;12.80;99.90;;;;;;5035459;28;20497;-76
2022/06/19 06:07:54;;;;;;;21.70;4.32;;;13.00;99.90;;;;;;5063037;28;20095;-77
2022/06/19 06:10:21;;;;;;;21.77;3.00;;;12.90;99.90;;;;;;5054533;28;20111;-76
2022/06/19 06:12:50;;;;;;;19.55;4.45;;;13.20;99.90;;;;;;5071665;28;20044;-77
2022/06/19 06:15:17;;;;;;;16.45;5.45;;;13.20;99.90;;;;;;5052388;28;20102;-78
2022/06/19 06:17:43;;;;;;;18.40;5.63;;;13.20;99.90;;;;;;5070801;28;20049;-77
2022/06/19 06:20:11;;;;;;;23.25;4.57;;;13.20;99.90;;;;;;5071349;28;20044;-77
2022/06/19 06:22:38;;;;;;;12.93;3.83;;;13.30;99.90;;;;;;5051996;28;20810;-77
2022/06/19 06:25:06;;;;;;;16.65;4.03;;;13.30;99.90;;;;;;5055158;28;20553;-76
2022/06/19 06:27:33;;;;;;;10.60;2.40;;;13.30;99.90;;;;;;5052933;28;20129;-77
2022/06/19 06:30:02;;;;;;;12.90;3.00;;;13.40;99.90;;;;;;5056049;28;20052;-77
2022/06/19 06:32:29;;;;;;;11.27;2.88;;;13.50;99.90;;;;;;5053923;28;20130;-77
2022/06/19 06:34:56;;;;;;;15.60;3.05;;;13.60;99.90;;;;;;5054343;28;20071;-77
2022/06/19 06:37:23;;;;;;;11.52;2.35;;;13.60;99.90;;;;;;5073173;28;20077;-78
2022/06/19 06:39:50;;;;;;;10.98;2.78;;;13.70;99.90;;;;;;5055664;28;20049;-77
2022/06/19 06:42:17;;;;;;;12.45;2.85;;;13.80;99.90;;;;;;5053038;28;20090;-78
2022/06/19 06:44:44;;;;;;;15.55;3.40;;;13.90;99.90;;;;;;5052888;28;20056;-77
2022/06/19 06:47:12;;;;;;;13.23;3.55;;;14.00;99.90;;;;;;5052922;28;20110;-76
2022/06/19 06:49:39;;;;;;;9.70;2.60;;;14.00;99.90;;;;;;5053299;28;20113;-78
2022/06/19 06:52:08;;;;;;;11.60;2.83;;;14.20;99.90;;;;;;5047999;28;20058;-77
2022/06/19 06:54:37;;;;;;;10.07;2.35;;;14.30;99.90;;;;;;5052438;28;20049;-77
2022/06/19 06:57:05;;;;;;;7.95;2.38;;;14.30;99.90;;;;;;5053105;28;20048;-78
2022/06/19 06:59:33;;;;;;;16.42;2.70;;;14.40;99.90;;;;;;5052538;28;20056;-78
2022/06/19 07:02:00;;;;;;;10.55;2.15;;;14.40;99.90;;;;;;5070527;28;20055;-78
2022/06/19 07:04:28;;;;;;;12.02;2.65;;;14.40;99.90;;;;;;5052404;28;20075;-78
2022/06/19 07:06:55;;;;;;;9.63;3.08;;;14.40;99.90;;;;;;5051909;28;20085;-77
2022/06/19 07:09:22;;;;;;;15.30;3.10;;;14.40;99.90;;;;;;5052663;28;20056;-77
2022/06/19 07:11:49;;;;;;;9.73;3.38;;;14.40;99.90;;;;;;5052101;28;20189;-78
2022/06/19 07:14:18;;;;;;;7.38;2.28;;;14.40;99.90;;;;;;5053263;28;20102;-77
2022/06/19 07:16:45;;;;;;;15.55;2.97;;;14.40;99.90;;;;;;5051945;28;20090;-76
2022/06/19 07:19:12;;;;;;;11.23;2.30;;;14.40;99.90;;;;;;5071227;28;20053;-77
2022/06/19 07:21:41;;;;;;;11.73;2.55;;;14.40;99.90;;;;;;5067115;28;20412;-78
2022/06/19 07:24:08;;;;;;;10.88;2.72;;;14.30;99.90;;;;;;5070929;28;20048;-78
2022/06/19 07:26:35;;;;;;;11.45;2.38;;;14.40;99.90;;;;;;5052332;28;20056;-77
2022/06/19 07:29:02;;;;;;;14.77;2.85;;;14.50;99.90;;;;;;5052150;28;20044;-77
2022/06/19 07:31:29;;;;;;;11.00;3.38;;;14.60;99.90;;;;;;5070591;28;20048;-78
2022/06/19 07:33:56;;;;;;;9.40;2.60;;;14.70;99.90;;;;;;5052986;28;20044;-77
2022/06/19 07:36:24;;;;;;;14.98;2.67;;;14.80;99.90;;;;;;5053118;28;20408;-78
2022/06/19 07:38:53;;;;;;;11.32;2.50;;;14.90;99.90;;;;;;5067745;28;20052;-78
2022/06/19 07:41:20;;;;;;;7.57;2.17;;;15.00;99.90;;;;;;5070190;28;20188;-78
2022/06/19 07:43:50;;;;;;;9.00;2.35;;;15.10;99.90;;;;;;5070263;28;20052;-79
2022/06/19 07:46:18;;;;;;;10.25;2.53;;;15.10;99.90;;;;;;5070433;28;20048;-76
2022/06/19 07:51:31;;;;;;;11.15;2.47;;;15.10;99.90;;;;;;5079547;28;20527;-75
2022/06/19 07:53:59;;;;;;;6.13;2.05;;;15.10;99.90;;;;;;5051827;28;20132;-78
2022/06/19 07:56:26;;;;;;;6.22;2.30;;;15.10;99.90;;;;;;5052768;28;20056;-77
2022/06/19 07:58:53;;;;;;;8.13;2.08;;;15.10;99.90;;;;;;5073929;28;20048;-78
2022/06/19 08:01:20;;;;;;;10.40;3.10;;;15.10;99.90;;;;;;5074225;28;20412;-77
2022/06/19 08:03:47;;;;;;;11.23;3.10;;;15.10;99.90;;;;;;5054438;28;20044;-78
2022/06/19 08:06:17;;;;;;;8.68;2.42;;;15.10;99.90;;;;;;5056315;28;20040;-78
2022/06/19 08:08:44;;;;;;;6.30;1.88;;;15.00;99.90;;;;;;5074437;28;20123;-78
2022/06/19 08:11:13;;;;;;;9.93;1.80;;;14.90;99.90;;;;;;5073040;28;20040;-78
2022/06/19 08:13:39;;;;;;;7.35;2.10;;;14.90;99.90;;;;;;5070742;28;20044;-77
2022/06/19 08:16:09;;;;;;;9.35;1.90;;;14.90;99.90;;;;;;5073817;28;20488;-77
2022/06/19 08:18:36;;;;;;;7.18;2.10;;;14.90;99.90;;;;;;5074482;28;20530;-76
2022/06/19 08:21:04;;;;;;;9.88;1.92;;;15.00;99.90;;;;;;5073985;28;20052;-76
2022/06/19 08:23:32;;;;;;;9.02;2.80;;;14.90;99.90;;;;;;5074523;28;20041;-76
2022/06/19 08:25:59;;;;;;;8.20;2.22;;;15.00;99.90;;;;;;5073772;28;20044;-76
2022/06/19 08:28:30;;;;;;;8.05;2.15;;;15.10;99.90;;;;;;5055294;28;20114;-76
2022/06/19 08:30:57;;;;;;;8.45;2.08;;;15.20;99.90;;;;;;5056063;28;20132;-76
2022/06/19 08:33:24;;;;;;;9.63;2.17;;;15.20;99.90;;;;;;5073852;28;20519;-74
2022/06/19 08:35:57;;;;;;;7.20;1.88;;;15.40;99.90;;;;;;5056580;28;20094;-75
2022/06/19 08:38:30;;;;;;;13.82;2.78;;;15.50;99.90;;;;;;5055854;28;20492;-77
2022/06/19 08:41:23;;;;;;;7.50;2.20;;;15.60;99.90;;;;;;5073166;28;20101;-71
2022/06/19 08:44:38;;;;;;;10.57;2.15;;;15.70;99.90;;;;;;5073570;28;20045;-73
2022/06/19 08:47:27;;;;;;;7.25;2.30;;;15.80;99.90;;;;;;5046102;28;20114;-72
2022/06/19 08:50:04;;;;;;;6.88;1.92;;;15.80;99.90;;;;;;5055643;28;20098;-72
2022/06/19 08:52:42;;;;;;;6.80;2.15;;;15.90;99.90;;;;;;5073253;28;20040;-73
2022/06/19 08:55:19;;;;;;;5.63;1.73;;;15.90;99.90;;;;;;5072629;28;20041;-72
2022/06/19 08:57:54;;;;;;;6.07;1.88;;;16.00;99.90;;;;;;5071481;28;20041;-71
2022/06/19 09:00:31;;;;;;;6.50;2.10;;;16.00;99.90;;;;;;5054725;28;20059;-72
2022/06/19 09:03:07;;;;;;;6.75;2.03;;;16.00;99.90;;;;;;5074088;28;20386;-70
2022/06/19 09:05:47;;;;;;;5.15;1.88;;;16.00;99.90;;;;;;5055422;28;20458;-72
2022/06/19 09:08:39;;;;;;;7.95;2.05;;;16.00;99.90;;;;;;5071949;28;20123;-72
2022/06/19 09:11:18;;;;;;;5.65;2.40;;;16.10;99.90;;;;;;5049687;28;20048;-72
2022/06/19 09:13:59;;;;;;;6.20;1.30;;;16.10;99.90;;;;;;5055139;28;20044;-72
2022/06/19 09:16:32;;;;;;;;;;;16.10;99.90;;;;;;5071987;28;20451;-72
2022/06/19 09:19:05;;;;;;;4.35;1.15;;;16.10;99.90;;;;;;5053467;28;19921;-73
2022/06/19 09:21:42;;;;;;;7.00;1.88;;;16.20;99.90;;;;;;5047634;28;20060;-74
2022/06/19 09:24:38;;;;;;;7.18;1.50;;;16.30;99.90;;;;;;5072302;28;20048;-72
2022/06/19 09:27:05;;;;;;;5.90;1.30;;;16.40;99.90;;;;;;5071575;28;20056;-73
2022/06/19 09:29:37;;;;;;;6.25;1.20;;;16.50;99.90;;;;;;5054711;28;20106;-73
2022/06/19 09:32:11;;;;;;;5.22;1.48;;;16.60;99.90;;;;;;5054767;28;20102;-72
2022/06/19 09:34:40;;;;;;;5.32;1.45;;;16.60;99.90;;;;;;5073691;28;20098;-72
2022/06/19 09:37:18;;;;;;;7.43;1.40;;;16.70;99.90;;;;;;5070295;28;20056;-72
2022/06/19 09:39:51;;;;;;;6.40;1.30;;;16.70;99.90;;;;;;5058542;28;20052;-72
2022/06/19 09:42:23;;;;;;;3.85;1.80;;;16.70;99.90;;;;;;5053625;28;20076;-72
2022/06/19 09:44:58;;;;;;;9.00;1.85;;;16.60;99.90;;;;;;5075922;28;20056;-73
2022/06/19 09:47:33;;;;;;;3.13;1.00;;;16.70;99.90;;;;;;5072033;28;20060;-73
2022/06/19 09:50:05;;;;;;;5.28;1.77;;;16.70;99.90;;;;;;5069820;28;20098;-73
2022/06/19 09:52:37;;;;;;;4.18;1.30;;;16.80;99.90;;;;;;5069067;28;20633;-73
2022/06/19 09:55:10;;;;;;;7.22;1.50;;;16.80;99.90;;;;;;5068812;28;20408;-73
2022/06/19 09:57:43;;;;;;;5.03;1.55;;;17.00;99.90;;;;;;5054569;28;20080;-72
2022/06/19 10:00:14;;;;;;;6.15;1.70;;;17.10;99.90;;;;;;5054352;28;20053;-73
2022/06/19 10:02:49;;;;;;;8.15;1.58;;;17.30;99.90;;;;;;5054682;28;20439;-72
2022/06/19 10:05:25;;;;;;;7.88;1.70;;;17.40;99.90;;;;;;5050901;28;20059;-74
2022/06/19 10:07:56;;;;;;;5.03;1.13;;;17.40;99.90;;;;;;5053180;28;20060;-74
2022/06/19 10:10:30;;;;;;;6.57;1.50;;;17.50;99.90;;;;;;5052364;28;20070;-74
2022/06/19 10:13:00;;;;;;;6.18;1.25;;;17.60;99.90;;;;;;5052760;28;20048;-71
2022/06/19 10:15:31;;;;;;;7.63;1.40;;;17.70;99.90;;;;;;5075403;28;20071;-73
2022/06/19 10:18:04;;;;;;;5.38;1.02;;;17.90;99.90;;;;;;5062578;28;20298;-72
2022/06/19 10:20:39;;;;;;;2.50;1.02;;;18.10;99.90;;;;;;5053123;28;20056;-73
2022/06/19 10:23:16;;;;;;;4.03;1.35;;;18.20;99.90;;;;;;5072157;28;20048;-73
2022/06/19 10:25:57;;;;;;;7.38;1.50;;;18.30;99.90;;;;;;5071191;28;20040;-75
2022/06/19 10:28:36;;;;;;;5.93;1.40;;;18.40;99.90;;;;;;5070234;28;20116;-74
2022/06/19 10:31:12;;;;;;;4.10;1.20;;;18.50;99.90;;;;;;5053393;28;20126;-74
2022/06/19 10:33:53;;;;;;;3.70;0.90;;;18.50;99.90;;;;;;5053385;28;20063;-74
2022/06/19 10:36:29;;;;;;;4.50;1.20;;;18.50;99.90;;;;;;5072326;28;20052;-74
2022/06/19 10:39:11;;;;;;;5.10;1.20;;;18.60;99.90;;;;;;5068911;28;20044;-76
2022/06/19 10:42:04;;;;;;;5.97;1.10;;;18.80;99.90;;;;;;5050479;28;20074;-75
2022/06/19 10:44:43;;;;;;;4.93;0.98;;;19.20;99.90;;;;;;5051061;28;20067;-74
2022/06/19 10:47:15;;;;;;;4.85;1.58;;;19.50;99.90;;;;;;5052890;28;20101;-74
2022/06/19 10:49:55;;;;;;;4.82;1.10;;;19.70;99.90;;;;;;5053255;28;20569;-74
2022/06/19 10:52:26;;;;;;;2.60;0.80;;;19.80;99.90;;;;;;5053437;28;20052;-75
2022/06/19 10:55:06;;;;;;;4.28;1.10;;;20.10;99.90;;;;;;5071717;28;20492;-75
2022/06/19 10:57:54;;;;;;;2.80;0.80;;;20.40;99.90;;;;;;5052700;28;20053;-75
2022/06/19 11:00:21;;;;;;;4.20;1.00;;;20.60;99.90;;;;;;5051279;28;20128;-77
2022/06/19 11:05:42;;;;;;;3.92;1.00;;;20.50;99.90;;;;;;5023329;28;20384;-75
2022/06/19 11:08:09;;;;;;;3.88;1.00;;;20.20;99.90;;;;;;5070600;28;20052;-74
2022/06/19 11:10:41;;;;;;;6.03;1.02;;;20.10;99.90;;;;;;5050346;28;20052;-74
2022/06/19 11:13:09;;;;;;;2.53;0.90;;;20.10;99.90;;;;;;5045465;28;20488;-73
2022/06/19 11:15:40;;;;;;;3.03;1.30;;;20.10;99.90;;;;;;5045190;28;20401;-73
2022/06/19 11:18:13;;;;;;;3.97;1.00;;;20.00;99.90;;;;;;5047212;28;20063;-74
2022/06/19 11:20:54;;;;;;;2.38;0.90;;;19.80;99.90;;;;;;5070548;28;20507;-74
2022/06/19 11:23:25;;;;;;;4.63;1.25;;;19.60;99.90;;;;;;5048739;28;20478;-74
2022/06/19 11:26:01;;;;;;;3.75;1.10;;;19.30;99.90;;;;;;5050035;28;20084;-74
2022/06/19 11:28:43;;;;;;;2.95;1.00;;;19.00;99.90;;;;;;5051236;28;20556;-74
2022/06/19 11:31:17;;;;;;;1.67;1.00;;;18.70;99.90;;;;;;5050879;28;20060;-74
2022/06/19 11:33:44;;;;;;;3.70;1.10;;;18.40;99.90;;;;;;5056168;28;20050;-73
2022/06/19 11:36:31;;;;;;;4.75;1.27;;;18.20;99.90;;;;;;5075205;28;20047;-74
2022/06/19 11:39:00;;;;;;;5.47;1.30;;;18.00;99.90;;;;;;5072479;28;20048;-73
2022/06/19 11:41:30;;;;;;;2.67;1.30;;;17.90;99.90;;;;;;5073272;28;20048;-73
2022/06/19 11:44:15;;;;;;;5.40;1.80;;;17.70;99.90;;;;;;5054247;28;20045;-72
2022/06/19 11:46:48;;;;;;;3.13;1.25;;;17.50;99.90;;;;;;5056050;28;20098;-74
2022/06/19 11:49:25;;;;;;;4.53;1.48;;;17.30;99.90;;;;;;5074165;28;20041;-73
2022/06/19 11:51:56;;;;;;;4.95;1.30;;;17.20;99.90;;;;;;5074082;28;20087;-73
2022/06/19 11:54:27;;;;;;;9.13;1.80;;;17.10;99.90;;;;;;5074283;28;20094;-73
2022/06/19 11:56:55;;;;;;;4.70;1.60;;;17.10;99.90;;;;;;5071051;28;20049;-73
2022/06/19 11:59:31;;;;;;;2.05;1.02;;;17.10;99.90;;;;;;5054159;28;20049;-74
2022/06/19 12:01:58;;;;;;;8.32;1.50;;;17.20;99.90;;;;;;5071737;28;20036;-73
2022/06/19 12:04:30;;;;;;;4.68;1.60;;;17.20;99.90;;;;;;5055806;28;20083;-74
2022/06/19 12:07:00;;;;;;;5.72;1.83;;;17.20;99.90;;;;;;5055808;28;20472;-74
2022/06/19 12:09:30;;;;;;;;;;;17.20;99.90;;;;;;5075189;28;20450;-73
2022/06/19 12:12:02;;;;;;;3.95;1.40;;;17.10;99.90;;;;;;5072549;28;19990;-74
2022/06/19 12:14:35;;;;;;;3.35;1.30;;;17.10;99.90;;;;;;5053403;28;20090;-74
2022/06/19 12:17:16;;;;;;;7.20;1.67;;;17.20;99.90;;;;;;5074079;28;20048;-74
2022/06/19 12:19:50;;;;;;;7.88;1.50;;;17.20;99.90;;;;;;5072940;28;20044;-74
2022/06/19 12:22:23;;;;;;;6.63;1.98;;;17.20;99.90;;;;;;5055938;28;20056;-73
2022/06/19 12:24:56;;;;;;;4.85;1.73;;;17.30;99.90;;;;;;5055199;28;20056;-73
2022/06/19 12:27:27;;;;;;;4.80;1.40;;;17.60;99.90;;;;;;5053699;28;20440;-73
2022/06/19 12:29:58;;;;;;;7.68;2.05;;;18.00;99.90;;;;;;5073268;28;20044;-73
2022/06/19 12:32:29;;;;;;;4.75;1.50;;;18.80;99.90;;;;;;5054486;28;20121;-73
2022/06/19 12:35:01;;;;;;;5.90;1.95;;;19.40;99.90;;;;;;5054985;28;20094;-74
2022/06/19 12:37:30;;;;;;;3.65;1.27;;;19.70;99.90;;;;;;5056038;28;20484;-73
2022/06/19 12:39:57;;;;;;;3.80;1.25;;;20.20;99.90;;;;;;5063250;28;20049;-74
2022/06/19 12:42:33;;;;;;;4.82;1.50;;;20.70;99.90;;;;;;5058301;28;20044;-73
2022/06/19 12:45:15;;;;;;;5.03;1.50;;;21.20;99.90;;;;;;5071278;28;20044;-74
2022/06/19 12:47:51;;;;;;;2.50;1.02;;;21.70;99.90;;;;;;5053487;28;20048;-73
2022/06/19 12:50:36;;;;;;;3.95;1.30;;;22.60;99.90;;;;;;5055283;28;20404;-74
2022/06/19 12:53:32;;;;;;;2.88;1.33;;;23.00;96.80;;;;;;5048510;28;20052;-74
2022/06/19 12:56:08;;;;;;;3.83;1.15;;;23.10;96.80;;;;;;5072555;28;20049;-73
2022/06/19 12:58:54;;;;;;;4.28;1.10;;;23.30;96.00;;;;;;5054988;28;20048;-72
2022/06/19 13:01:30;;;;;;;4.68;1.23;;;23.20;93.80;;;;;;5069441;28;20045;-73
2022/06/19 13:04:12;;;;;;;5.22;1.10;;;22.90;94.50;;;;;;5073268;28;20052;-75
2022/06/19 13:07:07;;;;;;;6.03;1.42;;;22.70;93.50;;;;;;5055200;28;20106;-75
2022/06/19 13:09:50;;;;;;;2.90;1.10;;;22.60;93.90;;;;;;5055024;28;20048;-73